Terminal Aerodrome Forecast
Issued by NWS Brownsville, TX

Home | Current Version | Previous Version | Text Only | Print | Product List | Glossary On
Versions: 1 2 3 4 5 6 7 8 9 10 11 12 13 14 15 16 17 18
000
FTUS44 KBRO 281209 AAA
TAFBRO
TAF AMD
KBRO 281209Z 2812/0112 31008KT 1SM BR OVC002
     FM281500 30008KT 5SM BR OVC015
     FM010000 34012KT 4SM BR OVC015
     FM010500 31009KT P6SM OVC015=

USA.gov is the U.S. government's official web portal to all federal, state and local government web resources and services.